sensor_id;sensor_type;location;lat;lon;timestamp;temperature;humidity
19868;DHT22;10096;51.112;6.776;2023-02-12T00:01:15;8.40;1.00
19868;DHT22;10096;51.112;6.776;2023-02-12T00:03:44;8.40;1.00
19868;DHT22;10096;51.112;6.776;2023-02-12T00:06:12;8.50;1.00
19868;DHT22;10096;51.112;6.776;2023-02-12T00:08:39;8.60;1.00
19868;DHT22;10096;51.112;6.776;2023-02-12T00:11:07;8.40;1.00
19868;DHT22;10096;51.112;6.776;2023-02-12T00:13:35;8.50;1.00
19868;DHT22;10096;51.112;6.776;2023-02-12T00:16:04;8.50;1.00
19868;DHT22;10096;51.112;6.776;2023-02-12T00:18:31;8.50;1.00
19868;DHT22;10096;51.112;6.776;2023-02-12T00:21:00;8.50;1.00
19868;DHT22;10096;51.112;6.776;2023-02-12T00:23:27;8.50;1.00
19868;DHT22;10096;51.112;6.776;2023-02-12T00:25:54;8.60;1.00
19868;DHT22;10096;51.112;6.776;2023-02-12T00:28:21;8.30;1.00
19868;DHT22;10096;51.112;6.776;2023-02-12T00:30:48;8.50;1.00
19868;DHT22;10096;51.112;6.776;2023-02-12T00:33:15;8.50;1.00
19868;DHT22;10096;51.112;6.776;2023-02-12T00:35:43;8.50;1.00
19868;DHT22;10096;51.112;6.776;2023-02-12T00:38:11;8.70;1.00
19868;DHT22;10096;51.112;6.776;2023-02-12T00:40:38;8.70;1.00
19868;DHT22;10096;51.112;6.776;2023-02-12T00:43:05;8.60;99.90
19868;DHT22;10096;51.112;6.776;2023-02-12T00:45:32;8.70;1.00
19868;DHT22;10096;51.112;6.776;2023-02-12T00:48:02;8.40;1.00
19868;DHT22;10096;51.112;6.776;2023-02-12T00:50:29;8.50;1.00
19868;DHT22;10096;51.112;6.776;2023-02-12T00:52:56;8.50;1.00
19868;DHT22;10096;51.112;6.776;2023-02-12T00:55:25;8.50;1.00
19868;DHT22;10096;51.112;6.776;2023-02-12T00:57:51;8.60;99.90
19868;DHT22;10096;51.112;6.776;2023-02-12T01:00:19;8.70;99.90
19868;DHT22;10096;51.112;6.776;2023-02-12T01:02:46;8.50;1.00
19868;DHT22;10096;51.112;6.776;2023-02-12T01:05:13;8.60;1.00
19868;DHT22;10096;51.112;6.776;2023-02-12T01:07:40;8.60;1.00
19868;DHT22;10096;51.112;6.776;2023-02-12T01:10:08;8.70;1.00
19868;DHT22;10096;51.112;6.776;2023-02-12T01:12:36;8.70;1.00
19868;DHT22;10096;51.112;6.776;2023-02-12T01:15:03;8.60;1.00
19868;DHT22;10096;51.112;6.776;2023-02-12T01:17:30;8.70;1.00
19868;DHT22;10096;51.112;6.776;2023-02-12T01:19:58;8.90;99.90
19868;DHT22;10096;51.112;6.776;2023-02-12T01:22:25;8.80;99.90
19868;DHT22;10096;51.112;6.776;2023-02-12T01:24:52;8.90;99.90
19868;DHT22;10096;51.112;6.776;2023-02-12T01:27:19;8.80;99.90
19868;DHT22;10096;51.112;6.776;2023-02-12T01:29:48;8.90;99.90
19868;DHT22;10096;51.112;6.776;2023-02-12T01:32:15;8.60;99.90
19868;DHT22;10096;51.112;6.776;2023-02-12T01:34:42;8.50;99.90
19868;DHT22;10096;51.112;6.776;2023-02-12T01:37:09;8.60;99.90
19868;DHT22;10096;51.112;6.776;2023-02-12T01:39:36;8.50;99.90
19868;DHT22;10096;51.112;6.776;2023-02-12T01:42:03;8.50;99.90
19868;DHT22;10096;51.112;6.776;2023-02-12T01:44:31;8.70;99.90
19868;DHT22;10096;51.112;6.776;2023-02-12T01:47:02;8.40;99.90
19868;DHT22;10096;51.112;6.776;2023-02-12T01:49:33;8.30;99.90
19868;DHT22;10096;51.112;6.776;2023-02-12T01:52:04;8.60;1.00
19868;DHT22;10096;51.112;6.776;2023-02-12T01:54:34;8.20;99.90
19868;DHT22;10096;51.112;6.776;2023-02-12T01:57:03;8.20;1.00
19868;DHT22;10096;51.112;6.776;2023-02-12T01:59:30;8.10;1.00
19868;DHT22;10096;51.112;6.776;2023-02-12T02:02:00;8.10;1.00
19868;DHT22;10096;51.112;6.776;2023-02-12T02:04:29;7.80;1.00
19868;DHT22;10096;51.112;6.776;2023-02-12T02:07:00;7.80;1.00
19868;DHT22;10096;51.112;6.776;2023-02-12T02:09:28;7.80;1.00
19868;DHT22;10096;51.112;6.776;2023-02-12T02:11:56;7.90;1.00
19868;DHT22;10096;51.112;6.776;2023-02-12T02:14:41;7.90;1.00
19868;DHT22;10096;51.112;6.776;2023-02-12T02:17:42;8.00;1.00
19868;DHT22;10096;51.112;6.776;2023-02-12T02:20:24;8.00;1.00
19868;DHT22;10096;51.112;6.776;2023-02-12T02:23:16;8.00;1.00
19868;DHT22;10096;51.112;6.776;2023-02-12T02:26:01;7.90;1.00
19868;DHT22;10096;51.112;6.776;2023-02-12T02:28:52;8.00;1.00
19868;DHT22;10096;51.112;6.776;2023-02-12T02:31:25;7.90;1.00
19868;DHT22;10096;51.112;6.776;2023-02-12T02:34:00;8.00;3.80
19868;DHT22;10096;51.112;6.776;2023-02-12T02:36:34;8.10;1.00
19868;DHT22;10096;51.112;6.776;2023-02-12T02:39:06;8.20;1.00
19868;DHT22;10096;51.112;6.776;2023-02-12T02:41:38;8.20;1.00
19868;DHT22;10096;51.112;6.776;2023-02-12T02:44:11;8.30;1.00
19868;DHT22;10096;51.112;6.776;2023-02-12T02:46:45;8.30;1.00
19868;DHT22;10096;51.112;6.776;2023-02-12T02:49:16;8.20;1.00
19868;DHT22;10096;51.112;6.776;2023-02-12T02:51:48;8.30;1.00
19868;DHT22;10096;51.112;6.776;2023-02-12T02:54:20;8.20;1.00
19868;DHT22;10096;51.112;6.776;2023-02-12T02:56:50;8.30;1.00
19868;DHT22;10096;51.112;6.776;2023-02-12T02:59:22;8.40;1.00
19868;DHT22;10096;51.112;6.776;2023-02-12T03:01:53;8.20;1.00
19868;DHT22;10096;51.112;6.776;2023-02-12T03:04:26;8.30;1.00
19868;DHT22;10096;51.112;6.776;2023-02-12T03:06:59;8.50;1.00
19868;DHT22;10096;51.112;6.776;2023-02-12T03:09:32;8.20;1.00
19868;DHT22;10096;51.112;6.776;2023-02-12T03:12:05;8.10;1.00
19868;DHT22;10096;51.112;6.776;2023-02-12T03:14:38;8.10;1.00
19868;DHT22;10096;51.112;6.776;2023-02-12T03:17:09;8.00;1.00
19868;DHT22;10096;51.112;6.776;2023-02-12T03:19:41;8.20;1.00
19868;DHT22;10096;51.112;6.776;2023-02-12T03:22:14;8.20;1.00
19868;DHT22;10096;51.112;6.776;2023-02-12T03:24:44;8.20;1.00
19868;DHT22;10096;51.112;6.776;2023-02-12T03:27:15;8.10;1.00
19868;DHT22;10096;51.112;6.776;2023-02-12T03:29:43;8.10;1.00
19868;DHT22;10096;51.112;6.776;2023-02-12T03:32:22;8.00;1.00
19868;DHT22;10096;51.112;6.776;2023-02-12T03:34:53;8.00;1.00
19868;DHT22;10096;51.112;6.776;2023-02-12T03:37:26;8.10;1.00
19868;DHT22;10096;51.112;6.776;2023-02-12T03:39:57;8.10;1.00
19868;DHT22;10096;51.112;6.776;2023-02-12T03:42:31;8.20;1.00
19868;DHT22;10096;51.112;6.776;2023-02-12T03:45:03;8.20;1.00
19868;DHT22;10096;51.112;6.776;2023-02-12T03:47:39;8.10;1.00
19868;DHT22;10096;51.112;6.776;2023-02-12T03:50:12;8.00;1.00
19868;DHT22;10096;51.112;6.776;2023-02-12T03:52:41;7.90;1.00
19868;DHT22;10096;51.112;6.776;2023-02-12T03:55:09;7.90;1.00
19868;DHT22;10096;51.112;6.776;2023-02-12T03:57:39;8.00;1.00
19868;DHT22;10096;51.112;6.776;2023-02-12T04:00:13;8.10;1.00
19868;DHT22;10096;51.112;6.776;2023-02-12T04:02:42;8.20;1.00
19868;DHT22;10096;51.112;6.776;2023-02-12T04:05:16;8.10;1.00
19868;DHT22;10096;51.112;6.776;2023-02-12T04:07:44;8.10;1.00
19868;DHT22;10096;51.112;6.776;2023-02-12T04:10:11;8.10;1.00
19868;DHT22;10096;51.112;6.776;2023-02-12T04:12:42;8.10;1.00
19868;DHT22;10096;51.112;6.776;2023-02-12T04:15:32;8.20;1.00
19868;DHT22;10096;51.112;6.776;2023-02-12T04:18:06;8.10;1.00
19868;DHT22;10096;51.112;6.776;2023-02-12T04:20:43;8.20;1.00
19868;DHT22;10096;51.112;6.776;2023-02-12T04:23:21;8.40;1.00
19868;DHT22;10096;51.112;6.776;2023-02-12T04:25:56;8.30;1.00
19868;DHT22;10096;51.112;6.776;2023-02-12T04:28:33;8.10;1.00
19868;DHT22;10096;51.112;6.776;2023-02-12T04:31:04;8.10;1.00
19868;DHT22;10096;51.112;6.776;2023-02-12T04:33:38;8.20;1.00
19868;DHT22;10096;51.112;6.776;2023-02-12T04:36:10;8.20;1.00
19868;DHT22;10096;51.112;6.776;2023-02-12T04:38:42;8.40;1.00
19868;DHT22;10096;51.112;6.776;2023-02-12T04:41:09;8.20;1.00
19868;DHT22;10096;51.112;6.776;2023-02-12T04:43:37;8.10;1.00
19868;DHT22;10096;51.112;6.776;2023-02-12T04:46:05;8.10;1.00
19868;DHT22;10096;51.112;6.776;2023-02-12T04:48:48;8.10;1.00
19868;DHT22;10096;51.112;6.776;2023-02-12T04:51:16;8.00;1.00
19868;DHT22;10096;51.112;6.776;2023-02-12T04:53:43;8.20;1.00
19868;DHT22;10096;51.112;6.776;2023-02-12T04:56:10;8.10;1.00
19868;DHT22;10096;51.112;6.776;2023-02-12T04:58:38;8.10;1.00
19868;DHT22;10096;51.112;6.776;2023-02-12T05:01:05;8.20;1.00
19868;DHT22;10096;51.112;6.776;2023-02-12T05:03:32;8.30;1.00
19868;DHT22;10096;51.112;6.776;2023-02-12T05:06:03;8.10;1.00
19868;DHT22;10096;51.112;6.776;2023-02-12T05:08:31;8.10;1.00
19868;DHT22;10096;51.112;6.776;2023-02-12T05:11:03;8.30;1.00
19868;DHT22;10096;51.112;6.776;2023-02-12T05:13:30;8.10;1.00
19868;DHT22;10096;51.112;6.776;2023-02-12T05:15:57;8.10;1.00
19868;DHT22;10096;51.112;6.776;2023-02-12T05:18:24;8.30;1.00
19868;DHT22;10096;51.112;6.776;2023-02-12T05:20:55;8.50;1.00
19868;DHT22;10096;51.112;6.776;2023-02-12T05:23:25;8.30;1.00
19868;DHT22;10096;51.112;6.776;2023-02-12T05:25:52;8.50;1.00
19868;DHT22;10096;51.112;6.776;2023-02-12T05:28:19;8.30;1.00
19868;DHT22;10096;51.112;6.776;2023-02-12T05:30:46;8.30;1.00
19868;DHT22;10096;51.112;6.776;2023-02-12T05:33:13;8.20;1.00
19868;DHT22;10096;51.112;6.776;2023-02-12T05:35:40;7.90;1.00
19868;DHT22;10096;51.112;6.776;2023-02-12T05:38:07;7.80;1.00
19868;DHT22;10096;51.112;6.776;2023-02-12T05:40:36;7.90;59.20
19868;DHT22;10096;51.112;6.776;2023-02-12T05:43:05;7.90;1.00
19868;DHT22;10096;51.112;6.776;2023-02-12T05:45:32;8.00;1.00
19868;DHT22;10096;51.112;6.776;2023-02-12T05:47:59;8.00;23.00
19868;DHT22;10096;51.112;6.776;2023-02-12T05:50:27;7.90;99.90
19868;DHT22;10096;51.112;6.776;2023-02-12T05:52:54;7.90;99.90
19868;DHT22;10096;51.112;6.776;2023-02-12T05:55:21;8.20;99.90
19868;DHT22;10096;51.112;6.776;2023-02-12T05:57:49;8.10;99.90
19868;DHT22;10096;51.112;6.776;2023-02-12T06:00:17;7.90;24.50
19868;DHT22;10096;51.112;6.776;2023-02-12T06:02:44;8.00;78.90
19868;DHT22;10096;51.112;6.776;2023-02-12T06:05:11;8.00;99.90
19868;DHT22;10096;51.112;6.776;2023-02-12T06:07:38;8.00;99.90
19868;DHT22;10096;51.112;6.776;2023-02-12T06:10:06;8.30;1.00
19868;DHT22;10096;51.112;6.776;2023-02-12T06:12:33;8.00;1.00
19868;DHT22;10096;51.112;6.776;2023-02-12T06:15:02;8.30;1.00
19868;DHT22;10096;51.112;6.776;2023-02-12T06:17:29;8.20;1.00
19868;DHT22;10096;51.112;6.776;2023-02-12T06:19:56;8.20;1.00
19868;DHT22;10096;51.112;6.776;2023-02-12T06:22:23;8.30;1.00
19868;DHT22;10096;51.112;6.776;2023-02-12T06:24:50;8.10;1.00
19868;DHT22;10096;51.112;6.776;2023-02-12T06:27:17;8.00;1.00
19868;DHT22;10096;51.112;6.776;2023-02-12T06:29:44;8.10;1.00
19868;DHT22;10096;51.112;6.776;2023-02-12T06:32:12;8.10;1.00
19868;DHT22;10096;51.112;6.776;2023-02-12T06:34:42;8.10;1.00
19868;DHT22;10096;51.112;6.776;2023-02-12T06:37:08;8.40;1.00
19868;DHT22;10096;51.112;6.776;2023-02-12T06:39:36;8.30;1.00
19868;DHT22;10096;51.112;6.776;2023-02-12T06:42:03;8.20;1.00
19868;DHT22;10096;51.112;6.776;2023-02-12T06:44:31;8.30;1.00
19868;DHT22;10096;51.112;6.776;2023-02-12T06:46:58;8.30;1.00
19868;DHT22;10096;51.112;6.776;2023-02-12T06:49:26;8.40;1.00
19868;DHT22;10096;51.112;6.776;2023-02-12T06:51:53;8.50;1.00
19868;DHT22;10096;51.112;6.776;2023-02-12T06:54:20;8.50;1.00
19868;DHT22;10096;51.112;6.776;2023-02-12T06:56:47;8.50;1.00
19868;DHT22;10096;51.112;6.776;2023-02-12T06:59:15;8.30;1.00
19868;DHT22;10096;51.112;6.776;2023-02-12T07:01:42;8.30;1.00
19868;DHT22;10096;51.112;6.776;2023-02-12T07:04:10;8.30;1.00
19868;DHT22;10096;51.112;6.776;2023-02-12T07:06:38;8.50;1.00
19868;DHT22;10096;51.112;6.776;2023-02-12T07:09:05;8.50;1.00
19868;DHT22;10096;51.112;6.776;2023-02-12T07:11:33;8.30;1.00
19868;DHT22;10096;51.112;6.776;2023-02-12T07:14:01;8.40;1.00
19868;DHT22;10096;51.112;6.776;2023-02-12T07:16:28;8.30;1.00
19868;DHT22;10096;51.112;6.776;2023-02-12T07:18:55;8.20;1.00
19868;DHT22;10096;51.112;6.776;2023-02-12T07:21:22;8.40;1.00
19868;DHT22;10096;51.112;6.776;2023-02-12T07:23:51;8.50;1.00
19868;DHT22;10096;51.112;6.776;2023-02-12T07:26:20;8.50;1.00
19868;DHT22;10096;51.112;6.776;2023-02-12T07:28:47;8.30;1.00
19868;DHT22;10096;51.112;6.776;2023-02-12T07:31:16;8.30;1.00
19868;DHT22;10096;51.112;6.776;2023-02-12T07:33:44;8.40;1.00
19868;DHT22;10096;51.112;6.776;2023-02-12T07:36:12;8.50;1.00
19868;DHT22;10096;51.112;6.776;2023-02-12T07:38:40;8.60;1.00
19868;DHT22;10096;51.112;6.776;2023-02-12T07:41:11;8.60;1.00
19868;DHT22;10096;51.112;6.776;2023-02-12T07:43:39;8.50;1.00
19868;DHT22;10096;51.112;6.776;2023-02-12T07:46:11;8.60;1.00
19868;DHT22;10096;51.112;6.776;2023-02-12T07:48:38;8.80;1.00
19868;DHT22;10096;51.112;6.776;2023-02-12T07:51:07;8.60;1.00
19868;DHT22;10096;51.112;6.776;2023-02-12T07:53:34;8.90;1.00
19868;DHT22;10096;51.112;6.776;2023-02-12T07:56:06;8.70;1.00
19868;DHT22;10096;51.112;6.776;2023-02-12T07:58:37;8.90;99.90
19868;DHT22;10096;51.112;6.776;2023-02-12T08:01:12;8.60;99.90
19868;DHT22;10096;51.112;6.776;2023-02-12T08:03:39;8.70;99.90
19868;DHT22;10096;51.112;6.776;2023-02-12T08:06:07;8.70;1.00
19868;DHT22;10096;51.112;6.776;2023-02-12T08:08:35;8.60;1.00
19868;DHT22;10096;51.112;6.776;2023-02-12T08:11:04;8.60;1.00
19868;DHT22;10096;51.112;6.776;2023-02-12T08:13:31;8.50;1.00
19868;DHT22;10096;51.112;6.776;2023-02-12T08:16:01;8.70;1.00
19868;DHT22;10096;51.112;6.776;2023-02-12T08:18:29;8.60;1.00
19868;DHT22;10096;51.112;6.776;2023-02-12T08:21:01;8.50;1.00
19868;DHT22;10096;51.112;6.776;2023-02-12T08:23:28;8.70;1.00
19868;DHT22;10096;51.112;6.776;2023-02-12T08:26:04;8.60;1.00
19868;DHT22;10096;51.112;6.776;2023-02-12T08:28:34;8.60;1.00
19868;DHT22;10096;51.112;6.776;2023-02-12T08:31:05;8.50;1.00
19868;DHT22;10096;51.112;6.776;2023-02-12T08:33:32;8.60;1.00
19868;DHT22;10096;51.112;6.776;2023-02-12T08:36:01;8.50;1.00
19868;DHT22;10096;51.112;6.776;2023-02-12T08:38:28;8.60;1.00
19868;DHT22;10096;51.112;6.776;2023-02-12T08:40:59;8.70;1.00
19868;DHT22;10096;51.112;6.776;2023-02-12T08:43:26;8.60;1.00
19868;DHT22;10096;51.112;6.776;2023-02-12T08:45:54;8.80;1.00
19868;DHT22;10096;51.112;6.776;2023-02-12T08:48:23;8.60;1.00
19868;DHT22;10096;51.112;6.776;2023-02-12T08:50:50;8.80;1.00
19868;DHT22;10096;51.112;6.776;2023-02-12T08:53:17;8.70;1.00
19868;DHT22;10096;51.112;6.776;2023-02-12T08:55:47;8.80;1.00
19868;DHT22;10096;51.112;6.776;2023-02-12T08:58:14;8.70;1.00
19868;DHT22;10096;51.112;6.776;2023-02-12T09:00:41;8.70;1.00
19868;DHT22;10096;51.112;6.776;2023-02-12T09:03:08;8.90;1.00
19868;DHT22;10096;51.112;6.776;2023-02-12T09:05:38;8.80;1.00
19868;DHT22;10096;51.112;6.776;2023-02-12T09:08:06;9.10;1.00
19868;DHT22;10096;51.112;6.776;2023-02-12T09:10:33;9.00;1.00
19868;DHT22;10096;51.112;6.776;2023-02-12T09:13:00;9.20;1.00
19868;DHT22;10096;51.112;6.776;2023-02-12T09:15:27;9.20;1.00
19868;DHT22;10096;51.112;6.776;2023-02-12T09:17:54;9.50;99.90
19868;DHT22;10096;51.112;6.776;2023-02-12T09:20:22;9.40;1.00
19868;DHT22;10096;51.112;6.776;2023-02-12T09:22:50;9.40;99.90
19868;DHT22;10096;51.112;6.776;2023-02-12T09:25:19;9.60;99.90
19868;DHT22;10096;51.112;6.776;2023-02-12T09:27:46;9.70;99.90
19868;DHT22;10096;51.112;6.776;2023-02-12T09:30:14;9.90;99.90
19868;DHT22;10096;51.112;6.776;2023-02-12T09:32:41;9.80;99.90
19868;DHT22;10096;51.112;6.776;2023-02-12T09:35:10;10.10;99.90
19868;DHT22;10096;51.112;6.776;2023-02-12T09:37:37;9.90;99.90
19868;DHT22;10096;51.112;6.776;2023-02-12T09:40:17;9.80;99.90
19868;DHT22;10096;51.112;6.776;2023-02-12T09:42:56;9.90;99.90
19868;DHT22;10096;51.112;6.776;2023-02-12T09:45:26;9.80;99.90
19868;DHT22;10096;51.112;6.776;2023-02-12T09:48:03;10.20;99.90
19868;DHT22;10096;51.112;6.776;2023-02-12T09:50:39;10.10;99.90
19868;DHT22;10096;51.112;6.776;2023-02-12T09:53:10;10.10;99.90
19868;DHT22;10096;51.112;6.776;2023-02-12T09:55:40;10.10;99.90
19868;DHT22;10096;51.112;6.776;2023-02-12T09:58:13;10.00;99.90
19868;DHT22;10096;51.112;6.776;2023-02-12T10:00:40;10.10;99.90
19868;DHT22;10096;51.112;6.776;2023-02-12T10:03:12;10.10;99.90
19868;DHT22;10096;51.112;6.776;2023-02-12T10:05:45;10.20;99.90
19868;DHT22;10096;51.112;6.776;2023-02-12T10:08:31;10.20;99.90
19868;DHT22;10096;51.112;6.776;2023-02-12T10:11:23;10.30;99.90
19868;DHT22;10096;51.112;6.776;2023-02-12T10:14:03;10.20;99.90
19868;DHT22;10096;51.112;6.776;2023-02-12T10:16:41;10.30;99.90
19868;DHT22;10096;51.112;6.776;2023-02-12T10:19:20;10.50;99.90
19868;DHT22;10096;51.112;6.776;2023-02-12T10:21:55;10.40;99.90
19868;DHT22;10096;51.112;6.776;2023-02-12T10:24:46;10.70;99.90
19868;DHT22;10096;51.112;6.776;2023-02-12T10:27:19;10.80;99.90
19868;DHT22;10096;51.112;6.776;2023-02-12T10:29:46;10.70;96.40
19868;DHT22;10096;51.112;6.776;2023-02-12T10:32:22;10.90;91.60
19868;DHT22;10096;51.112;6.776;2023-02-12T10:34:50;11.10;86.00
19868;DHT22;10096;51.112;6.776;2023-02-12T10:37:25;11.20;55.10
19868;DHT22;10096;51.112;6.776;2023-02-12T10:39:55;11.20;21.50
19868;DHT22;10096;51.112;6.776;2023-02-12T10:42:37;11.30;10.90
19868;DHT22;10096;51.112;6.776;2023-02-12T10:45:08;11.20;14.30
19868;DHT22;10096;51.112;6.776;2023-02-12T10:47:38;11.20;6.40
19868;DHT22;10096;51.112;6.776;2023-02-12T10:50:15;11.30;5.10
19868;DHT22;10096;51.112;6.776;2023-02-12T10:52:46;11.20;1.00
19868;DHT22;10096;51.112;6.776;2023-02-12T10:55:24;11.40;1.00
19868;DHT22;10096;51.112;6.776;2023-02-12T10:57:53;11.30;1.00
19868;DHT22;10096;51.112;6.776;2023-02-12T11:00:29;11.30;2.40
19868;DHT22;10096;51.112;6.776;2023-02-12T11:03:21;11.40;1.00
19868;DHT22;10096;51.112;6.776;2023-02-12T11:05:48;11.30;1.00
19868;DHT22;10096;51.112;6.776;2023-02-12T11:08:30;11.60;1.00
19868;DHT22;10096;51.112;6.776;2023-02-12T11:11:08;11.60;1.00
19868;DHT22;10096;51.112;6.776;2023-02-12T11:13:39;11.60;1.00
19868;DHT22;10096;51.112;6.776;2023-02-12T11:16:07;11.60;1.00
19868;DHT22;10096;51.112;6.776;2023-02-12T11:18:34;11.60;1.00
19868;DHT22;10096;51.112;6.776;2023-02-12T11:21:04;11.60;1.00
19868;DHT22;10096;51.112;6.776;2023-02-12T11:23:33;11.40;1.00
19868;DHT22;10096;51.112;6.776;2023-02-12T11:26:05;11.50;1.00
19868;DHT22;10096;51.112;6.776;2023-02-12T11:28:34;11.60;1.00
19868;DHT22;10096;51.112;6.776;2023-02-12T11:31:19;11.80;1.00
19868;DHT22;10096;51.112;6.776;2023-02-12T11:34:06;11.90;1.00
19868;DHT22;10096;51.112;6.776;2023-02-12T11:36:35;12.10;1.00
19868;DHT22;10096;51.112;6.776;2023-02-12T11:39:04;12.00;1.00
19868;DHT22;10096;51.112;6.776;2023-02-12T11:41:35;12.00;1.00
19868;DHT22;10096;51.112;6.776;2023-02-12T11:44:11;12.00;1.00
19868;DHT22;10096;51.112;6.776;2023-02-12T11:46:46;11.90;1.00
19868;DHT22;10096;51.112;6.776;2023-02-12T11:49:18;11.90;1.00
19868;DHT22;10096;51.112;6.776;2023-02-12T11:51:47;11.70;1.00
19868;DHT22;10096;51.112;6.776;2023-02-12T11:54:19;11.80;1.00
19868;DHT22;10096;51.112;6.776;2023-02-12T11:56:49;12.10;1.00
19868;DHT22;10096;51.112;6.776;2023-02-12T11:59:31;12.30;1.00
19868;DHT22;10096;51.112;6.776;2023-02-12T12:02:07;12.10;1.00
19868;DHT22;10096;51.112;6.776;2023-02-12T12:04:46;12.00;1.00
19868;DHT22;10096;51.112;6.776;2023-02-12T12:07:19;12.00;1.00
19868;DHT22;10096;51.112;6.776;2023-02-12T12:09:52;12.10;1.00
19868;DHT22;10096;51.112;6.776;2023-02-12T12:12:27;12.00;1.00
19868;DHT22;10096;51.112;6.776;2023-02-12T12:14:59;12.40;1.00
19868;DHT22;10096;51.112;6.776;2023-02-12T12:17:51;12.50;1.00
19868;DHT22;10096;51.112;6.776;2023-02-12T12:20:40;12.40;1.00
19868;DHT22;10096;51.112;6.776;2023-02-12T12:23:13;12.40;1.00
19868;DHT22;10096;51.112;6.776;2023-02-12T12:25:44;12.30;1.00
19868;DHT22;10096;51.112;6.776;2023-02-12T12:28:25;12.30;1.00
19868;DHT22;10096;51.112;6.776;2023-02-12T12:31:01;12.50;1.00
19868;DHT22;10096;51.112;6.776;2023-02-12T12:33:49;11.90;1.00
19868;DHT22;10096;51.112;6.776;2023-02-12T12:37:05;12.00;1.00
19868;DHT22;10096;51.112;6.776;2023-02-12T12:39:45;12.20;1.00
19868;DHT22;10096;51.112;6.776;2023-02-12T12:42:46;12.40;1.00
19868;DHT22;10096;51.112;6.776;2023-02-12T12:45:33;12.10;1.00
19868;DHT22;10096;51.112;6.776;2023-02-12T12:48:16;12.10;1.00
19868;DHT22;10096;51.112;6.776;2023-02-12T12:51:01;12.30;1.00
19868;DHT22;10096;51.112;6.776;2023-02-12T12:53:39;12.20;1.00
19868;DHT22;10096;51.112;6.776;2023-02-12T12:56:20;12.20;1.00
19868;DHT22;10096;51.112;6.776;2023-02-12T12:58:59;12.20;1.00
19868;DHT22;10096;51.112;6.776;2023-02-12T13:01:46;12.40;1.00
19868;DHT22;10096;51.112;6.776;2023-02-12T13:04:35;12.30;1.00
19868;DHT22;10096;51.112;6.776;2023-02-12T13:07:16;12.20;1.00
19868;DHT22;10096;51.112;6.776;2023-02-12T13:09:56;12.40;1.00
19868;DHT22;10096;51.112;6.776;2023-02-12T13:12:36;12.50;1.00
19868;DHT22;10096;51.112;6.776;2023-02-12T13:15:14;12.40;1.00
19868;DHT22;10096;51.112;6.776;2023-02-12T13:17:50;12.40;1.00
19868;DHT22;10096;51.112;6.776;2023-02-12T13:20:25;12.20;1.00
19868;DHT22;10096;51.112;6.776;2023-02-12T13:23:05;12.50;1.00
19868;DHT22;10096;51.112;6.776;2023-02-12T13:25:41;12.50;1.00
19868;DHT22;10096;51.112;6.776;2023-02-12T13:28:13;12.40;1.00
19868;DHT22;10096;51.112;6.776;2023-02-12T13:30:45;12.40;1.00
19868;DHT22;10096;51.112;6.776;2023-02-12T13:33:18;12.30;1.00
19868;DHT22;10096;51.112;6.776;2023-02-12T13:35:48;12.30;1.00
19868;DHT22;10096;51.112;6.776;2023-02-12T13:38:22;12.20;1.00
19868;DHT22;10096;51.112;6.776;2023-02-12T13:40:53;12.20;1.00
19868;DHT22;10096;51.112;6.776;2023-02-12T13:43:43;12.10;1.00
19868;DHT22;10096;51.112;6.776;2023-02-12T13:46:16;12.20;1.00
19868;DHT22;10096;51.112;6.776;2023-02-12T13:48:54;12.10;1.00
19868;DHT22;10096;51.112;6.776;2023-02-12T13:51:33;12.10;1.00
19868;DHT22;10096;51.112;6.776;2023-02-12T13:54:13;12.10;1.00
19868;DHT22;10096;51.112;6.776;2023-02-12T13:56:44;12.10;1.00
19868;DHT22;10096;51.112;6.776;2023-02-12T13:59:38;12.20;1.00
19868;DHT22;10096;51.112;6.776;2023-02-12T14:05:23;12.20;1.00
19868;DHT22;10096;51.112;6.776;2023-02-12T14:07:53;12.20;1.00
19868;DHT22;10096;51.112;6.776;2023-02-12T14:10:27;12.20;1.00
19868;DHT22;10096;51.112;6.776;2023-02-12T14:12:58;12.10;1.00
19868;DHT22;10096;51.112;6.776;2023-02-12T14:15:49;12.20;1.00
19868;DHT22;10096;51.112;6.776;2023-02-12T14:18:30;12.40;1.00
19868;DHT22;10096;51.112;6.776;2023-02-12T14:24:48;12.10;1.00
19868;DHT22;10096;51.112;6.776;2023-02-12T14:27:40;12.10;1.00
19868;DHT22;10096;51.112;6.776;2023-02-12T14:30:31;12.20;1.00
19868;DHT22;10096;51.112;6.776;2023-02-12T14:33:24;12.20;1.00
19868;DHT22;10096;51.112;6.776;2023-02-12T14:36:15;12.20;1.00
19868;DHT22;10096;51.112;6.776;2023-02-12T14:39:03;12.20;1.00
19868;DHT22;10096;51.112;6.776;2023-02-12T14:41:33;11.90;1.00
19868;DHT22;10096;51.112;6.776;2023-02-12T14:50:00;12.40;1.00
19868;DHT22;10096;51.112;6.776;2023-02-12T14:52:31;12.20;1.00
19868;DHT22;10096;51.112;6.776;2023-02-12T14:55:00;12.10;1.00
19868;DHT22;10096;51.112;6.776;2023-02-12T14:57:30;12.40;1.00
19868;DHT22;10096;51.112;6.776;2023-02-12T15:00:03;12.10;1.00
19868;DHT22;10096;51.112;6.776;2023-02-12T15:02:33;12.10;1.00
19868;DHT22;10096;51.112;6.776;2023-02-12T15:05:04;12.10;1.00
19868;DHT22;10096;51.112;6.776;2023-02-12T15:07:38;12.10;1.00
19868;DHT22;10096;51.112;6.776;2023-02-12T15:10:12;12.20;1.00
19868;DHT22;10096;51.112;6.776;2023-02-12T15:12:44;12.20;1.00
19868;DHT22;10096;51.112;6.776;2023-02-12T15:15:17;12.30;1.00
19868;DHT22;10096;51.112;6.776;2023-02-12T15:17:54;12.20;1.00
19868;DHT22;10096;51.112;6.776;2023-02-12T15:20:24;12.20;1.00
19868;DHT22;10096;51.112;6.776;2023-02-12T15:22:56;12.20;1.00
19868;DHT22;10096;51.112;6.776;2023-02-12T15:25:27;12.20;1.00
19868;DHT22;10096;51.112;6.776;2023-02-12T15:27:58;12.20;1.00
19868;DHT22;10096;51.112;6.776;2023-02-12T15:30:29;12.20;1.00
19868;DHT22;10096;51.112;6.776;2023-02-12T15:33:03;12.30;1.00
19868;DHT22;10096;51.112;6.776;2023-02-12T15:35:33;12.20;1.00
19868;DHT22;10096;51.112;6.776;2023-02-12T15:38:00;12.20;1.00
19868;DHT22;10096;51.112;6.776;2023-02-12T15:40:29;12.10;1.00
19868;DHT22;10096;51.112;6.776;2023-02-12T15:42:58;12.20;1.00
19868;DHT22;10096;51.112;6.776;2023-02-12T15:45:27;12.40;1.00
19868;DHT22;10096;51.112;6.776;2023-02-12T15:48:06;12.10;1.00
19868;DHT22;10096;51.112;6.776;2023-02-12T15:50:46;12.10;1.00
19868;DHT22;10096;51.112;6.776;2023-02-12T15:53:16;12.10;1.00
19868;DHT22;10096;51.112;6.776;2023-02-12T15:55:47;12.20;1.00
19868;DHT22;10096;51.112;6.776;2023-02-12T15:58:24;11.90;1.00
19868;DHT22;10096;51.112;6.776;2023-02-12T16:00:52;11.90;1.00
19868;DHT22;10096;51.112;6.776;2023-02-12T16:03:29;11.90;1.00
19868;DHT22;10096;51.112;6.776;2023-02-12T16:06:02;12.10;1.00
19868;DHT22;10096;51.112;6.776;2023-02-12T16:08:32;11.90;1.00
19868;DHT22;10096;51.112;6.776;2023-02-12T16:11:01;11.90;1.00
19868;DHT22;10096;51.112;6.776;2023-02-12T16:13:41;11.80;1.00
19868;DHT22;10096;51.112;6.776;2023-02-12T16:16:19;11.80;1.00
19868;DHT22;10096;51.112;6.776;2023-02-12T16:19:05;11.90;1.00
19868;DHT22;10096;51.112;6.776;2023-02-12T16:21:34;11.80;1.00
19868;DHT22;10096;51.112;6.776;2023-02-12T16:24:02;11.70;1.00
19868;DHT22;10096;51.112;6.776;2023-02-12T16:26:29;11.90;1.00
19868;DHT22;10096;51.112;6.776;2023-02-12T16:28:57;11.70;1.00
19868;DHT22;10096;51.112;6.776;2023-02-12T16:31:26;11.90;1.00
19868;DHT22;10096;51.112;6.776;2023-02-12T16:33:55;11.60;1.00
19868;DHT22;10096;51.112;6.776;2023-02-12T16:36:30;11.90;1.00